Terminal Aerodrome Forecast
Issued by NWS

Home | Current Version | Previous Version | Text Only | Print | Product List | Glossary On
Versions: 1 2 3 4 5 6 7 8 9 10 11 12 13 14 15 16 17
000
FTUS44 KTSA 162300
TAFMLC
TAF
KMLC 162320Z 1700/1724 17011G17KT P6SM SKC
     FM170100 15006KT P6SM FEW250
     FM171700 14006KT P6SM BKN050=

USA.gov is the U.S. government's official web portal to all federal, state and local government web resources and services.